sensor_id;sensor_type;location;lat;lon;timestamp;P1;durP1;ratioP1;P2;durP2;ratioP2
76850;SDS011;65824;43.726;20.692;2024-02-21T00:01:02;80.45;;;37.67;;
76850;SDS011;65824;43.726;20.692;2024-02-21T00:03:29;79.80;;;38.55;;
76850;SDS011;65824;43.726;20.692;2024-02-21T00:05:54;112.15;;;48.92;;
76850;SDS011;65824;43.726;20.692;2024-02-21T00:08:21;81.30;;;39.42;;
76850;SDS011;65824;43.726;20.692;2024-02-21T00:10:46;76.32;;;38.15;;
76850;SDS011;65824;43.726;20.692;2024-02-21T00:13:13;70.00;;;34.63;;
76850;SDS011;65824;43.726;20.692;2024-02-21T00:15:38;72.05;;;34.08;;
76850;SDS011;65824;43.726;20.692;2024-02-21T00:18:04;75.40;;;37.72;;
76850;SDS011;65824;43.726;20.692;2024-02-21T00:20:30;71.90;;;37.28;;
76850;SDS011;65824;43.726;20.692;2024-02-21T00:22:56;73.50;;;37.60;;
76850;SDS011;65824;43.726;20.692;2024-02-21T00:25:22;71.30;;;37.13;;
76850;SDS011;65824;43.726;20.692;2024-02-21T00:27:48;66.43;;;34.60;;
76850;SDS011;65824;43.726;20.692;2024-02-21T00:30:13;71.70;;;35.13;;
76850;SDS011;65824;43.726;20.692;2024-02-21T00:32:39;62.67;;;33.58;;
76850;SDS011;65824;43.726;20.692;2024-02-21T00:35:05;67.30;;;33.03;;
76850;SDS011;65824;43.726;20.692;2024-02-21T00:37:31;63.80;;;33.78;;
76850;SDS011;65824;43.726;20.692;2024-02-21T00:39:57;64.18;;;33.05;;
76850;SDS011;65824;43.726;20.692;2024-02-21T00:42:23;62.45;;;32.45;;
76850;SDS011;65824;43.726;20.692;2024-02-21T00:44:48;59.13;;;29.20;;
76850;SDS011;65824;43.726;20.692;2024-02-21T00:47:14;55.78;;;28.38;;
76850;SDS011;65824;43.726;20.692;2024-02-21T00:49:40;57.30;;;29.23;;
76850;SDS011;65824;43.726;20.692;2024-02-21T00:52:05;60.50;;;30.50;;
76850;SDS011;65824;43.726;20.692;2024-02-21T00:54:31;59.08;;;30.20;;
76850;SDS011;65824;43.726;20.692;2024-02-21T00:56:57;50.15;;;26.92;;
76850;SDS011;65824;43.726;20.692;2024-02-21T00:59:23;43.15;;;24.92;;
76850;SDS011;65824;43.726;20.692;2024-02-21T01:01:48;43.58;;;23.88;;
76850;SDS011;65824;43.726;20.692;2024-02-21T01:04:14;40.15;;;22.48;;
76850;SDS011;65824;43.726;20.692;2024-02-21T01:06:40;34.65;;;20.73;;
76850;SDS011;65824;43.726;20.692;2024-02-21T01:09:09;36.72;;;19.73;;
76850;SDS011;65824;43.726;20.692;2024-02-21T01:11:35;35.78;;;20.13;;
76850;SDS011;65824;43.726;20.692;2024-02-21T01:14:01;35.75;;;20.00;;
76850;SDS011;65824;43.726;20.692;2024-02-21T01:16:28;35.00;;;19.23;;
76850;SDS011;65824;43.726;20.692;2024-02-21T01:18:53;36.42;;;19.70;;
76850;SDS011;65824;43.726;20.692;2024-02-21T01:21:19;35.08;;;18.75;;
76850;SDS011;65824;43.726;20.692;2024-02-21T01:23:45;33.00;;;18.50;;
76850;SDS011;65824;43.726;20.692;2024-02-21T01:26:10;33.67;;;18.92;;
76850;SDS011;65824;43.726;20.692;2024-02-21T01:28:38;32.72;;;17.75;;
76850;SDS011;65824;43.726;20.692;2024-02-21T01:31:05;36.38;;;19.58;;
76850;SDS011;65824;43.726;20.692;2024-02-21T01:33:31;39.03;;;21.33;;
76850;SDS011;65824;43.726;20.692;2024-02-21T01:36:03;35.80;;;20.20;;
76850;SDS011;65824;43.726;20.692;2024-02-21T01:38:33;40.00;;;21.67;;
76850;SDS011;65824;43.726;20.692;2024-02-21T01:40:59;38.08;;;21.33;;
76850;SDS011;65824;43.726;20.692;2024-02-21T01:43:24;40.03;;;21.55;;
76850;SDS011;65824;43.726;20.692;2024-02-21T01:45:50;36.13;;;20.08;;
76850;SDS011;65824;43.726;20.692;2024-02-21T01:48:20;36.55;;;21.00;;
76850;SDS011;65824;43.726;20.692;2024-02-21T01:50:47;39.80;;;21.20;;
76850;SDS011;65824;43.726;20.692;2024-02-21T01:53:21;36.45;;;21.15;;
76850;SDS011;65824;43.726;20.692;2024-02-21T01:56:03;38.40;;;20.70;;
76850;SDS011;65824;43.726;20.692;2024-02-21T01:58:31;36.92;;;20.33;;
76850;SDS011;65824;43.726;20.692;2024-02-21T02:01:02;45.20;;;21.20;;
76850;SDS011;65824;43.726;20.692;2024-02-21T02:03:28;37.75;;;20.90;;
76850;SDS011;65824;43.726;20.692;2024-02-21T02:05:55;36.10;;;20.33;;
76850;SDS011;65824;43.726;20.692;2024-02-21T02:08:20;42.50;;;23.70;;
76850;SDS011;65824;43.726;20.692;2024-02-21T02:10:50;36.72;;;22.10;;
76850;SDS011;65824;43.726;20.692;2024-02-21T02:13:15;37.20;;;22.02;;
76850;SDS011;65824;43.726;20.692;2024-02-21T02:15:48;36.25;;;20.60;;
76850;SDS011;65824;43.726;20.692;2024-02-21T02:18:14;37.65;;;20.52;;
76850;SDS011;65824;43.726;20.692;2024-02-21T02:20:40;37.90;;;20.85;;
76850;SDS011;65824;43.726;20.692;2024-02-21T02:23:08;41.20;;;21.77;;
76850;SDS011;65824;43.726;20.692;2024-02-21T02:25:38;39.00;;;22.50;;
76850;SDS011;65824;43.726;20.692;2024-02-21T02:28:05;37.28;;;20.85;;
76850;SDS011;65824;43.726;20.692;2024-02-21T02:30:35;35.80;;;20.63;;
76850;SDS011;65824;43.726;20.692;2024-02-21T02:33:04;39.67;;;21.23;;
76850;SDS011;65824;43.726;20.692;2024-02-21T02:35:30;38.97;;;21.30;;
76850;SDS011;65824;43.726;20.692;2024-02-21T02:37:57;37.47;;;20.98;;
76850;SDS011;65824;43.726;20.692;2024-02-21T02:40:22;40.22;;;22.58;;
76850;SDS011;65824;43.726;20.692;2024-02-21T02:42:48;40.20;;;21.88;;
76850;SDS011;65824;43.726;20.692;2024-02-21T02:45:17;38.65;;;21.58;;
76850;SDS011;65824;43.726;20.692;2024-02-21T02:47:45;36.45;;;20.50;;
76850;SDS011;65824;43.726;20.692;2024-02-21T02:50:11;36.22;;;20.83;;
76850;SDS011;65824;43.726;20.692;2024-02-21T02:52:38;38.58;;;21.73;;
76850;SDS011;65824;43.726;20.692;2024-02-21T02:55:04;44.58;;;24.50;;
76850;SDS011;65824;43.726;20.692;2024-02-21T02:57:30;41.17;;;23.20;;
76850;SDS011;65824;43.726;20.692;2024-02-21T02:59:56;38.22;;;22.00;;
76850;SDS011;65824;43.726;20.692;2024-02-21T03:02:22;40.20;;;21.70;;
76850;SDS011;65824;43.726;20.692;2024-02-21T03:04:48;35.38;;;19.17;;
76850;SDS011;65824;43.726;20.692;2024-02-21T03:07:14;40.33;;;21.58;;
76850;SDS011;65824;43.726;20.692;2024-02-21T03:09:40;37.08;;;20.40;;
76850;SDS011;65824;43.726;20.692;2024-02-21T03:12:08;35.60;;;20.00;;
76850;SDS011;65824;43.726;20.692;2024-02-21T03:14:34;35.30;;;19.85;;
76850;SDS011;65824;43.726;20.692;2024-02-21T03:17:00;39.42;;;20.60;;
76850;SDS011;65824;43.726;20.692;2024-02-21T03:19:26;37.00;;;20.75;;
76850;SDS011;65824;43.726;20.692;2024-02-21T03:21:52;35.50;;;20.40;;
76850;SDS011;65824;43.726;20.692;2024-02-21T03:24:18;37.45;;;21.00;;
76850;SDS011;65824;43.726;20.692;2024-02-21T03:26:45;40.22;;;21.05;;
76850;SDS011;65824;43.726;20.692;2024-02-21T03:29:14;36.88;;;22.48;;
76850;SDS011;65824;43.726;20.692;2024-02-21T03:31:41;35.70;;;21.42;;
76850;SDS011;65824;43.726;20.692;2024-02-21T03:34:07;36.47;;;21.55;;
76850;SDS011;65824;43.726;20.692;2024-02-21T03:36:33;39.05;;;21.08;;
76850;SDS011;65824;43.726;20.692;2024-02-21T03:38:59;38.30;;;21.65;;
76850;SDS011;65824;43.726;20.692;2024-02-21T03:41:24;33.30;;;20.13;;
76850;SDS011;65824;43.726;20.692;2024-02-21T03:43:50;36.72;;;19.92;;
76850;SDS011;65824;43.726;20.692;2024-02-21T03:46:15;32.90;;;18.90;;
76850;SDS011;65824;43.726;20.692;2024-02-21T03:48:41;33.20;;;18.20;;
76850;SDS011;65824;43.726;20.692;2024-02-21T03:51:06;28.83;;;16.65;;
76850;SDS011;65824;43.726;20.692;2024-02-21T03:53:33;28.42;;;15.85;;
76850;SDS011;65824;43.726;20.692;2024-02-21T03:56:01;24.67;;;14.52;;
76850;SDS011;65824;43.726;20.692;2024-02-21T03:58:29;26.35;;;14.18;;
76850;SDS011;65824;43.726;20.692;2024-02-21T04:01:00;28.30;;;14.43;;
76850;SDS011;65824;43.726;20.692;2024-02-21T04:03:27;22.92;;;13.30;;
76850;SDS011;65824;43.726;20.692;2024-02-21T04:05:53;21.98;;;12.75;;
76850;SDS011;65824;43.726;20.692;2024-02-21T04:08:19;21.67;;;12.10;;
76850;SDS011;65824;43.726;20.692;2024-02-21T04:10:44;20.85;;;11.98;;
76850;SDS011;65824;43.726;20.692;2024-02-21T04:13:13;20.00;;;11.35;;
76850;SDS011;65824;43.726;20.692;2024-02-21T04:15:38;23.05;;;12.75;;
76850;SDS011;65824;43.726;20.692;2024-02-21T04:18:06;22.17;;;12.18;;
76850;SDS011;65824;43.726;20.692;2024-02-21T04:20:32;26.95;;;13.70;;
76850;SDS011;65824;43.726;20.692;2024-02-21T04:22:58;24.48;;;13.30;;
76850;SDS011;65824;43.726;20.692;2024-02-21T04:25:23;26.02;;;13.73;;
76850;SDS011;65824;43.726;20.692;2024-02-21T04:27:49;24.50;;;13.82;;
76850;SDS011;65824;43.726;20.692;2024-02-21T04:30:16;22.83;;;12.10;;
76850;SDS011;65824;43.726;20.692;2024-02-21T04:32:42;30.20;;;13.40;;
76850;SDS011;65824;43.726;20.692;2024-02-21T04:35:08;23.33;;;13.95;;
76850;SDS011;65824;43.726;20.692;2024-02-21T04:37:33;31.55;;;15.95;;
76850;SDS011;65824;43.726;20.692;2024-02-21T04:39:59;29.30;;;15.35;;
76850;SDS011;65824;43.726;20.692;2024-02-21T04:42:25;28.50;;;15.38;;
76850;SDS011;65824;43.726;20.692;2024-02-21T04:44:50;28.65;;;14.73;;
76850;SDS011;65824;43.726;20.692;2024-02-21T04:47:16;26.83;;;14.75;;
76850;SDS011;65824;43.726;20.692;2024-02-21T04:49:42;26.90;;;14.88;;
76850;SDS011;65824;43.726;20.692;2024-02-21T04:52:08;28.50;;;15.63;;
76850;SDS011;65824;43.726;20.692;2024-02-21T04:54:33;29.75;;;15.70;;
76850;SDS011;65824;43.726;20.692;2024-02-21T04:57:00;31.13;;;18.25;;
76850;SDS011;65824;43.726;20.692;2024-02-21T04:59:29;31.70;;;17.75;;
76850;SDS011;65824;43.726;20.692;2024-02-21T05:01:54;32.40;;;18.55;;
76850;SDS011;65824;43.726;20.692;2024-02-21T05:04:20;34.22;;;19.13;;
76850;SDS011;65824;43.726;20.692;2024-02-21T05:06:46;38.35;;;20.38;;
76850;SDS011;65824;43.726;20.692;2024-02-21T05:09:12;41.03;;;22.45;;
76850;SDS011;65824;43.726;20.692;2024-02-21T05:11:37;43.85;;;22.67;;
76850;SDS011;65824;43.726;20.692;2024-02-21T05:14:03;43.40;;;23.00;;
76850;SDS011;65824;43.726;20.692;2024-02-21T05:16:31;41.88;;;23.38;;
76850;SDS011;65824;43.726;20.692;2024-02-21T05:18:56;42.25;;;23.20;;
76850;SDS011;65824;43.726;20.692;2024-02-21T05:21:24;44.10;;;24.02;;
76850;SDS011;65824;43.726;20.692;2024-02-21T05:23:50;41.92;;;24.02;;
76850;SDS011;65824;43.726;20.692;2024-02-21T05:26:25;40.53;;;22.08;;
76850;SDS011;65824;43.726;20.692;2024-02-21T05:28:51;36.72;;;20.88;;
76850;SDS011;65824;43.726;20.692;2024-02-21T05:31:20;39.78;;;20.92;;
76850;SDS011;65824;43.726;20.692;2024-02-21T05:33:46;39.35;;;20.27;;
76850;SDS011;65824;43.726;20.692;2024-02-21T05:36:12;39.30;;;20.63;;
76850;SDS011;65824;43.726;20.692;2024-02-21T05:38:38;35.20;;;19.20;;
76850;SDS011;65824;43.726;20.692;2024-02-21T05:41:04;31.25;;;18.33;;
76850;SDS011;65824;43.726;20.692;2024-02-21T05:43:29;29.33;;;15.68;;
76850;SDS011;65824;43.726;20.692;2024-02-21T05:45:56;26.70;;;13.95;;
76850;SDS011;65824;43.726;20.692;2024-02-21T05:48:23;27.50;;;14.43;;
76850;SDS011;65824;43.726;20.692;2024-02-21T05:50:49;24.92;;;14.07;;
76850;SDS011;65824;43.726;20.692;2024-02-21T05:53:14;25.08;;;13.80;;
76850;SDS011;65824;43.726;20.692;2024-02-21T05:55:40;27.65;;;14.07;;
76850;SDS011;65824;43.726;20.692;2024-02-21T05:58:06;26.98;;;13.80;;
76850;SDS011;65824;43.726;20.692;2024-02-21T06:00:32;24.80;;;13.65;;
76850;SDS011;65824;43.726;20.692;2024-02-21T06:02:58;29.48;;;14.82;;
76850;SDS011;65824;43.726;20.692;2024-02-21T06:05:25;31.85;;;17.25;;
76850;SDS011;65824;43.726;20.692;2024-02-21T06:07:53;42.53;;;22.48;;
76850;SDS011;65824;43.726;20.692;2024-02-21T06:10:18;41.38;;;21.58;;
76850;SDS011;65824;43.726;20.692;2024-02-21T06:12:44;35.45;;;21.17;;
76850;SDS011;65824;43.726;20.692;2024-02-21T06:15:12;35.80;;;19.95;;
76850;SDS011;65824;43.726;20.692;2024-02-21T06:17:37;33.50;;;18.08;;
76850;SDS011;65824;43.726;20.692;2024-02-21T06:20:03;29.50;;;16.70;;
76850;SDS011;65824;43.726;20.692;2024-02-21T06:22:34;25.33;;;14.50;;
76850;SDS011;65824;43.726;20.692;2024-02-21T06:25:00;27.58;;;14.15;;
76850;SDS011;65824;43.726;20.692;2024-02-21T06:27:27;24.75;;;14.32;;
76850;SDS011;65824;43.726;20.692;2024-02-21T06:29:52;32.15;;;17.90;;
76850;SDS011;65824;43.726;20.692;2024-02-21T06:32:18;35.47;;;20.95;;
76850;SDS011;65824;43.726;20.692;2024-02-21T06:34:43;39.55;;;22.48;;
76850;SDS011;65824;43.726;20.692;2024-02-21T06:37:08;34.72;;;20.38;;
76850;SDS011;65824;43.726;20.692;2024-02-21T06:39:34;31.90;;;19.25;;
76850;SDS011;65824;43.726;20.692;2024-02-21T06:42:01;32.90;;;17.25;;
76850;SDS011;65824;43.726;20.692;2024-02-21T06:44:26;30.80;;;15.68;;
76850;SDS011;65824;43.726;20.692;2024-02-21T06:46:53;32.22;;;17.15;;
76850;SDS011;65824;43.726;20.692;2024-02-21T06:49:19;31.80;;;16.42;;
76850;SDS011;65824;43.726;20.692;2024-02-21T06:51:46;31.85;;;16.65;;
76850;SDS011;65824;43.726;20.692;2024-02-21T06:54:11;30.83;;;17.45;;
76850;SDS011;65824;43.726;20.692;2024-02-21T06:56:39;31.63;;;17.65;;
76850;SDS011;65824;43.726;20.692;2024-02-21T06:59:06;26.85;;;13.85;;
76850;SDS011;65824;43.726;20.692;2024-02-21T07:01:35;28.73;;;15.32;;
76850;SDS011;65824;43.726;20.692;2024-02-21T07:04:01;28.73;;;16.27;;
76850;SDS011;65824;43.726;20.692;2024-02-21T07:06:26;25.90;;;15.90;;
76850;SDS011;65824;43.726;20.692;2024-02-21T07:08:52;31.55;;;15.88;;
76850;SDS011;65824;43.726;20.692;2024-02-21T07:11:17;29.98;;;16.63;;
76850;SDS011;65824;43.726;20.692;2024-02-21T07:13:43;30.35;;;16.77;;
76850;SDS011;65824;43.726;20.692;2024-02-21T07:16:09;28.48;;;16.52;;
76850;SDS011;65824;43.726;20.692;2024-02-21T07:18:36;29.02;;;16.55;;
76850;SDS011;65824;43.726;20.692;2024-02-21T07:21:02;37.58;;;17.83;;
76850;SDS011;65824;43.726;20.692;2024-02-21T07:23:27;32.67;;;17.98;;
76850;SDS011;65824;43.726;20.692;2024-02-21T07:25:53;28.52;;;16.77;;
76850;SDS011;65824;43.726;20.692;2024-02-21T07:28:18;27.92;;;16.45;;
76850;SDS011;65824;43.726;20.692;2024-02-21T07:30:44;29.75;;;17.42;;
76850;SDS011;65824;43.726;20.692;2024-02-21T07:33:09;32.10;;;18.10;;
76850;SDS011;65824;43.726;20.692;2024-02-21T07:35:35;29.95;;;17.40;;
76850;SDS011;65824;43.726;20.692;2024-02-21T07:38:06;27.27;;;15.73;;
76850;SDS011;65824;43.726;20.692;2024-02-21T07:40:33;26.20;;;15.43;;
76850;SDS011;65824;43.726;20.692;2024-02-21T07:42:59;27.00;;;15.05;;
76850;SDS011;65824;43.726;20.692;2024-02-21T07:45:25;24.65;;;14.32;;
76850;SDS011;65824;43.726;20.692;2024-02-21T07:47:51;26.30;;;15.23;;
76850;SDS011;65824;43.726;20.692;2024-02-21T07:50:17;26.98;;;14.43;;
76850;SDS011;65824;43.726;20.692;2024-02-21T07:52:43;29.20;;;14.80;;
76850;SDS011;65824;43.726;20.692;2024-02-21T07:55:08;29.20;;;15.82;;
76850;SDS011;65824;43.726;20.692;2024-02-21T07:57:36;29.25;;;14.32;;
76850;SDS011;65824;43.726;20.692;2024-02-21T08:00:05;28.13;;;16.15;;
76850;SDS011;65824;43.726;20.692;2024-02-21T08:02:31;30.85;;;18.30;;
76850;SDS011;65824;43.726;20.692;2024-02-21T08:04:56;34.30;;;19.38;;
76850;SDS011;65824;43.726;20.692;2024-02-21T08:07:25;31.58;;;18.73;;
76850;SDS011;65824;43.726;20.692;2024-02-21T08:09:54;40.42;;;21.15;;
76850;SDS011;65824;43.726;20.692;2024-02-21T08:12:21;42.80;;;21.58;;
76850;SDS011;65824;43.726;20.692;2024-02-21T08:14:46;34.80;;;20.60;;
76850;SDS011;65824;43.726;20.692;2024-02-21T08:17:13;36.72;;;20.45;;
76850;SDS011;65824;43.726;20.692;2024-02-21T08:19:38;32.35;;;17.67;;
76850;SDS011;65824;43.726;20.692;2024-02-21T08:22:03;33.80;;;18.08;;
76850;SDS011;65824;43.726;20.692;2024-02-21T08:24:29;30.85;;;16.63;;
76850;SDS011;65824;43.726;20.692;2024-02-21T08:26:55;28.92;;;17.05;;
76850;SDS011;65824;43.726;20.692;2024-02-21T08:29:21;25.13;;;15.23;;
76850;SDS011;65824;43.726;20.692;2024-02-21T08:31:46;27.85;;;16.52;;
76850;SDS011;65824;43.726;20.692;2024-02-21T08:34:12;30.40;;;16.88;;
76850;SDS011;65824;43.726;20.692;2024-02-21T08:36:38;28.67;;;17.65;;
76850;SDS011;65824;43.726;20.692;2024-02-21T08:39:04;33.42;;;18.63;;
76850;SDS011;65824;43.726;20.692;2024-02-21T08:41:33;31.08;;;17.98;;
76850;SDS011;65824;43.726;20.692;2024-02-21T08:43:59;30.00;;;16.58;;
76850;SDS011;65824;43.726;20.692;2024-02-21T08:46:25;23.15;;;13.35;;
76850;SDS011;65824;43.726;20.692;2024-02-21T08:48:51;20.10;;;11.35;;
76850;SDS011;65824;43.726;20.692;2024-02-21T08:51:17;15.07;;;9.65;;
76850;SDS011;65824;43.726;20.692;2024-02-21T08:53:46;15.70;;;9.32;;
76850;SDS011;65824;43.726;20.692;2024-02-21T08:56:12;15.98;;;9.30;;
76850;SDS011;65824;43.726;20.692;2024-02-21T08:58:39;19.45;;;9.63;;
76850;SDS011;65824;43.726;20.692;2024-02-21T09:01:06;15.55;;;8.95;;
76850;SDS011;65824;43.726;20.692;2024-02-21T09:03:35;15.38;;;9.25;;
76850;SDS011;65824;43.726;20.692;2024-02-21T09:06:04;16.38;;;9.50;;
76850;SDS011;65824;43.726;20.692;2024-02-21T09:08:31;17.30;;;9.80;;
76850;SDS011;65824;43.726;20.692;2024-02-21T09:10:57;21.15;;;11.73;;
76850;SDS011;65824;43.726;20.692;2024-02-21T09:13:23;26.55;;;13.45;;
76850;SDS011;65824;43.726;20.692;2024-02-21T09:15:49;25.50;;;14.93;;
76850;SDS011;65824;43.726;20.692;2024-02-21T09:18:14;30.88;;;17.40;;
76850;SDS011;65824;43.726;20.692;2024-02-21T09:20:41;35.75;;;19.05;;
76850;SDS011;65824;43.726;20.692;2024-02-21T09:23:07;34.38;;;19.90;;
76850;SDS011;65824;43.726;20.692;2024-02-21T09:25:32;36.35;;;20.33;;
76850;SDS011;65824;43.726;20.692;2024-02-21T09:27:59;38.45;;;21.13;;
76850;SDS011;65824;43.726;20.692;2024-02-21T09:30:27;40.67;;;22.48;;
76850;SDS011;65824;43.726;20.692;2024-02-21T09:32:53;40.40;;;21.25;;
76850;SDS011;65824;43.726;20.692;2024-02-21T09:35:19;39.13;;;20.63;;
76850;SDS011;65824;43.726;20.692;2024-02-21T09:37:47;27.20;;;15.07;;
76850;SDS011;65824;43.726;20.692;2024-02-21T09:40:12;26.73;;;15.93;;
76850;SDS011;65824;43.726;20.692;2024-02-21T09:42:42;29.80;;;17.50;;
76850;SDS011;65824;43.726;20.692;2024-02-21T09:45:10;37.97;;;21.45;;
76850;SDS011;65824;43.726;20.692;2024-02-21T09:47:50;38.67;;;22.60;;
76850;SDS011;65824;43.726;20.692;2024-02-21T09:53:02;42.03;;;22.83;;
76850;SDS011;65824;43.726;20.692;2024-02-21T09:55:29;38.42;;;22.48;;
76850;SDS011;65824;43.726;20.692;2024-02-21T09:57:59;31.02;;;17.77;;
76850;SDS011;65824;43.726;20.692;2024-02-21T10:00:26;32.67;;;18.70;;
76850;SDS011;65824;43.726;20.692;2024-02-21T10:02:53;30.33;;;16.98;;
76850;SDS011;65824;43.726;20.692;2024-02-21T10:05:18;24.88;;;13.65;;
76850;SDS011;65824;43.726;20.692;2024-02-21T10:07:44;33.22;;;19.15;;
76850;SDS011;65824;43.726;20.692;2024-02-21T10:10:10;35.38;;;20.77;;
76850;SDS011;65824;43.726;20.692;2024-02-21T10:12:47;36.90;;;21.98;;
76850;SDS011;65824;43.726;20.692;2024-02-21T10:15:23;35.72;;;21.08;;
76850;SDS011;65824;43.726;20.692;2024-02-21T10:17:59;34.90;;;19.55;;
76850;SDS011;65824;43.726;20.692;2024-02-21T10:20:27;37.13;;;20.58;;
76850;SDS011;65824;43.726;20.692;2024-02-21T10:23:03;29.25;;;16.88;;
76850;SDS011;65824;43.726;20.692;2024-02-21T10:25:33;31.65;;;16.92;;
76850;SDS011;65824;43.726;20.692;2024-02-21T10:28:06;29.55;;;17.55;;
76850;SDS011;65824;43.726;20.692;2024-02-21T10:30:32;33.40;;;17.30;;
76850;SDS011;65824;43.726;20.692;2024-02-21T10:32:57;34.70;;;17.98;;
76850;SDS011;65824;43.726;20.692;2024-02-21T10:35:26;18.48;;;10.32;;
76850;SDS011;65824;43.726;20.692;2024-02-21T10:37:56;20.40;;;8.65;;
76850;SDS011;65824;43.726;20.692;2024-02-21T10:40:25;13.50;;;7.95;;
76850;SDS011;65824;43.726;20.692;2024-02-21T10:42:59;16.73;;;10.77;;
76850;SDS011;65824;43.726;20.692;2024-02-21T10:45:29;18.15;;;9.60;;
76850;SDS011;65824;43.726;20.692;2024-02-21T10:47:56;15.60;;;8.40;;
76850;SDS011;65824;43.726;20.692;2024-02-21T10:50:27;12.65;;;7.63;;
76850;SDS011;65824;43.726;20.692;2024-02-21T10:53:39;15.07;;;8.20;;
76850;SDS011;65824;43.726;20.692;2024-02-21T10:56:06;16.48;;;8.65;;
76850;SDS011;65824;43.726;20.692;2024-02-21T10:58:40;20.20;;;10.80;;
76850;SDS011;65824;43.726;20.692;2024-02-21T11:01:07;18.20;;;10.23;;
76850;SDS011;65824;43.726;20.692;2024-02-21T11:03:34;19.90;;;10.10;;
76850;SDS011;65824;43.726;20.692;2024-02-21T11:06:03;17.65;;;9.48;;
76850;SDS011;65824;43.726;20.692;2024-02-21T11:08:30;15.98;;;8.93;;
76850;SDS011;65824;43.726;20.692;2024-02-21T11:10:58;15.48;;;9.10;;
76850;SDS011;65824;43.726;20.692;2024-02-21T11:13:31;18.05;;;9.63;;
76850;SDS011;65824;43.726;20.692;2024-02-21T11:16:09;17.58;;;9.48;;
76850;SDS011;65824;43.726;20.692;2024-02-21T11:18:37;17.75;;;9.02;;
76850;SDS011;65824;43.726;20.692;2024-02-21T11:21:04;17.20;;;8.77;;
76850;SDS011;65824;43.726;20.692;2024-02-21T11:23:30;13.85;;;8.82;;
76850;SDS011;65824;43.726;20.692;2024-02-21T11:26:06;15.95;;;9.27;;
76850;SDS011;65824;43.726;20.692;2024-02-21T11:28:37;14.18;;;8.90;;
76850;SDS011;65824;43.726;20.692;2024-02-21T11:31:12;18.70;;;10.02;;
76850;SDS011;65824;43.726;20.692;2024-02-21T11:33:42;18.10;;;9.73;;
76850;SDS011;65824;43.726;20.692;2024-02-21T11:36:08;18.30;;;10.15;;
76850;SDS011;65824;43.726;20.692;2024-02-21T11:38:35;19.23;;;10.55;;
76850;SDS011;65824;43.726;20.692;2024-02-21T11:41:01;20.90;;;11.30;;
76850;SDS011;65824;43.726;20.692;2024-02-21T11:43:27;20.65;;;11.38;;
76850;SDS011;65824;43.726;20.692;2024-02-21T11:46:02;18.65;;;11.75;;
76850;SDS011;65824;43.726;20.692;2024-02-21T11:48:28;17.50;;;10.07;;
76850;SDS011;65824;43.726;20.692;2024-02-21T11:50:56;18.05;;;10.82;;
76850;SDS011;65824;43.726;20.692;2024-02-21T11:53:22;20.70;;;10.30;;
76850;SDS011;65824;43.726;20.692;2024-02-21T11:55:49;17.88;;;11.60;;
76850;SDS011;65824;43.726;20.692;2024-02-21T11:58:15;20.52;;;11.48;;
76850;SDS011;65824;43.726;20.692;2024-02-21T12:00:42;21.83;;;13.35;;
76850;SDS011;65824;43.726;20.692;2024-02-21T12:03:08;32.28;;;18.00;;
76850;SDS011;65824;43.726;20.692;2024-02-21T12:05:38;25.15;;;14.25;;
76850;SDS011;65824;43.726;20.692;2024-02-21T12:08:04;22.35;;;13.75;;
76850;SDS011;65824;43.726;20.692;2024-02-21T12:10:29;25.55;;;14.65;;
76850;SDS011;65824;43.726;20.692;2024-02-21T12:13:10;23.38;;;13.43;;
76850;SDS011;65824;43.726;20.692;2024-02-21T12:15:36;23.20;;;12.88;;
76850;SDS011;65824;43.726;20.692;2024-02-21T12:18:03;23.88;;;14.15;;
76850;SDS011;65824;43.726;20.692;2024-02-21T12:20:30;23.98;;;13.65;;
76850;SDS011;65824;43.726;20.692;2024-02-21T12:23:00;25.40;;;14.43;;
76850;SDS011;65824;43.726;20.692;2024-02-21T12:25:26;22.98;;;13.98;;
76850;SDS011;65824;43.726;20.692;2024-02-21T12:27:54;27.10;;;15.80;;
76850;SDS011;65824;43.726;20.692;2024-02-21T12:30:21;26.55;;;15.23;;
76850;SDS011;65824;43.726;20.692;2024-02-21T12:32:47;24.77;;;14.73;;
76850;SDS011;65824;43.726;20.692;2024-02-21T12:35:13;27.75;;;17.48;;
76850;SDS011;65824;43.726;20.692;2024-02-21T12:37:39;25.25;;;15.15;;
76850;SDS011;65824;43.726;20.692;2024-02-21T12:40:05;21.33;;;13.35;;
76850;SDS011;65824;43.726;20.692;2024-02-21T12:42:33;21.42;;;13.50;;
76850;SDS011;65824;43.726;20.692;2024-02-21T12:44:59;25.08;;;14.70;;
76850;SDS011;65824;43.726;20.692;2024-02-21T12:47:25;26.40;;;16.10;;
76850;SDS011;65824;43.726;20.692;2024-02-21T12:49:52;24.42;;;13.38;;
76850;SDS011;65824;43.726;20.692;2024-02-21T12:52:18;21.10;;;12.93;;
76850;SDS011;65824;43.726;20.692;2024-02-21T12:54:44;24.05;;;14.98;;
76850;SDS011;65824;43.726;20.692;2024-02-21T12:57:10;22.83;;;13.73;;
76850;SDS011;65824;43.726;20.692;2024-02-21T12:59:36;23.13;;;14.55;;
76850;SDS011;65824;43.726;20.692;2024-02-21T13:02:01;23.70;;;14.18;;
76850;SDS011;65824;43.726;20.692;2024-02-21T13:04:27;24.27;;;14.27;;
76850;SDS011;65824;43.726;20.692;2024-02-21T13:06:52;24.20;;;13.88;;
76850;SDS011;65824;43.726;20.692;2024-02-21T13:09:18;18.77;;;12.35;;
76850;SDS011;65824;43.726;20.692;2024-02-21T13:11:45;18.40;;;10.65;;
76850;SDS011;65824;43.726;20.692;2024-02-21T13:14:11;16.05;;;10.27;;
76850;SDS011;65824;43.726;20.692;2024-02-21T13:16:37;14.13;;;7.75;;
76850;SDS011;65824;43.726;20.692;2024-02-21T13:19:07;7.03;;;4.07;;
76850;SDS011;65824;43.726;20.692;2024-02-21T13:21:36;16.15;;;9.30;;
76850;SDS011;65824;43.726;20.692;2024-02-21T13:24:01;8.13;;;3.88;;
76850;SDS011;65824;43.726;20.692;2024-02-21T13:26:28;7.75;;;4.25;;
76850;SDS011;65824;43.726;20.692;2024-02-21T13:28:53;6.75;;;3.60;;
76850;SDS011;65824;43.726;20.692;2024-02-21T13:31:19;7.35;;;3.97;;
76850;SDS011;65824;43.726;20.692;2024-02-21T13:33:47;11.35;;;6.13;;
76850;SDS011;65824;43.726;20.692;2024-02-21T13:36:12;13.52;;;8.13;;
76850;SDS011;65824;43.726;20.692;2024-02-21T13:38:39;13.82;;;7.13;;
76850;SDS011;65824;43.726;20.692;2024-02-21T13:41:07;12.75;;;7.93;;
76850;SDS011;65824;43.726;20.692;2024-02-21T13:43:33;13.40;;;7.78;;
76850;SDS011;65824;43.726;20.692;2024-02-21T13:46:02;17.75;;;9.98;;
76850;SDS011;65824;43.726;20.692;2024-02-21T13:48:30;17.52;;;9.85;;
76850;SDS011;65824;43.726;20.692;2024-02-21T13:50:58;17.10;;;9.93;;
76850;SDS011;65824;43.726;20.692;2024-02-21T13:53:23;16.77;;;9.60;;
76850;SDS011;65824;43.726;20.692;2024-02-21T13:55:49;21.13;;;12.70;;
76850;SDS011;65824;43.726;20.692;2024-02-21T13:58:15;16.73;;;9.35;;
76850;SDS011;65824;43.726;20.692;2024-02-21T14:00:42;15.65;;;8.90;;
76850;SDS011;65824;43.726;20.692;2024-02-21T14:03:08;17.15;;;10.02;;
76850;SDS011;65824;43.726;20.692;2024-02-21T14:05:34;17.88;;;10.07;;
76850;SDS011;65824;43.726;20.692;2024-02-21T14:08:00;17.83;;;9.95;;
76850;SDS011;65824;43.726;20.692;2024-02-21T14:10:27;15.00;;;7.32;;
76850;SDS011;65824;43.726;20.692;2024-02-21T14:12:56;14.70;;;7.40;;